createdAt,value
2019-03-03T00:02:05.034Z,27.27
2019-03-03T00:04:34.793Z,30.17
2019-03-03T00:07:04.662Z,30.97
2019-03-03T00:09:34.623Z,32.60
2019-03-03T00:12:04.392Z,24.43
2019-03-03T00:14:34.074Z,31.03
2019-03-03T00:17:03.801Z,32.47
2019-03-03T00:19:33.468Z,29.90
2019-03-03T00:22:03.271Z,26.47
2019-03-03T00:24:32.981Z,28.53
2019-03-03T00:27:02.682Z,33.30
2019-03-03T00:29:32.439Z,32.93
2019-03-03T00:32:02.309Z,31.13
2019-03-03T00:34:31.993Z,31.93
2019-03-03T00:37:12.703Z,32.00
2019-03-03T00:39:44.029Z,30.73
2019-03-03T00:42:30.596Z,36.13
2019-03-03T00:45:13.782Z,30.40
2019-03-03T00:47:45.045Z,35.67
2019-03-03T00:50:32.447Z,31.17
2019-03-03T00:53:03.755Z,34.90
2019-03-03T00:55:37.875Z,39.47
2019-03-03T00:58:25.572Z,35.00
2019-03-03T01:01:09.320Z,33.73
2019-03-03T01:03:40.631Z,40.50
2019-03-03T01:06:24.068Z,26.60
2019-03-03T01:08:55.675Z,26.40
2019-03-03T01:11:26.989Z,27.80
2019-03-03T01:14:14.052Z,32.40
2019-03-03T01:16:48.200Z,33.67
2019-03-03T01:19:36.090Z,40.20
2019-03-03T01:22:13.460Z,29.30
2019-03-03T01:24:58.667Z,28.43
2019-03-03T01:27:28.381Z,29.80
2019-03-03T01:29:58.166Z,36.10
2019-03-03T01:32:28.205Z,35.17
2019-03-03T01:34:58.483Z,32.60
2019-03-03T01:37:28.393Z,36.97
2019-03-03T01:39:58.042Z,34.30
2019-03-03T01:42:27.688Z,30.17
2019-03-03T01:44:57.366Z,33.33
2019-03-03T01:47:27.099Z,36.67
2019-03-03T01:49:56.710Z,32.50
2019-03-03T01:52:26.405Z,33.87
2019-03-03T01:54:56.031Z,36.27
2019-03-03T01:57:25.755Z,28.83
2019-03-03T01:59:55.472Z,35.30
2019-03-03T02:02:25.191Z,36.70
2019-03-03T02:04:54.931Z,37.20
2019-03-03T02:07:24.576Z,42.20
2019-03-03T02:09:54.312Z,40.30
2019-03-03T02:12:24.028Z,41.40
2019-03-03T02:14:53.700Z,30.90
2019-03-03T02:17:23.491Z,35.00
2019-03-03T02:19:53.226Z,32.60
2019-03-03T02:22:22.951Z,33.93
2019-03-03T02:24:52.918Z,41.70
2019-03-03T02:27:22.704Z,41.73
2019-03-03T02:29:52.462Z,33.37
2019-03-03T02:32:22.569Z,32.10
2019-03-03T02:34:52.297Z,34.77
2019-03-03T02:37:21.976Z,41.47
2019-03-03T02:39:51.802Z,34.90
2019-03-03T02:42:21.550Z,32.00
2019-03-03T02:44:51.592Z,38.13
2019-03-03T02:47:21.210Z,32.77
2019-03-03T02:49:51.250Z,41.43
2019-03-03T02:52:20.878Z,40.30
2019-03-03T02:54:50.595Z,34.50
2019-03-03T02:57:20.349Z,43.17
2019-03-03T02:59:50.131Z,33.60
2019-03-03T03:02:21.640Z,40.50
2019-03-03T03:04:51.365Z,30.83
2019-03-03T03:07:34.414Z,35.37
2019-03-03T03:10:09.107Z,28.73
2019-03-03T03:12:55.487Z,37.90
2019-03-03T03:15:27.374Z,33.70
2019-03-03T03:18:08.127Z,38.80
2019-03-03T03:20:39.498Z,34.63
2019-03-03T03:23:23.188Z,34.50
2019-03-03T03:26:03.373Z,29.80
2019-03-03T03:28:51.105Z,40.53
2019-03-03T03:31:25.477Z,27.10
2019-03-03T03:33:56.829Z,27.37
2019-03-03T03:36:43.795Z,31.13
2019-03-03T03:39:15.166Z,33.63
2019-03-03T03:41:55.480Z,40.20
2019-03-03T03:44:29.498Z,35.50
2019-03-03T03:47:12.669Z,38.07
2019-03-03T03:49:50.246Z,38.57
2019-03-03T03:52:36.910Z,29.80
2019-03-03T03:55:12.482Z,29.37
2019-03-03T03:57:44.125Z,36.63
2019-03-03T04:00:15.562Z,33.47
2019-03-03T04:03:22.384Z,29.17
2019-03-03T04:05:56.988Z,31.73
2019-03-03T04:08:28.498Z,26.03
2019-03-03T04:11:18.397Z,30.20
2019-03-03T04:13:58.544Z,38.53
2019-03-03T04:16:32.613Z,30.90
2019-03-03T04:19:19.064Z,30.70
2019-03-03T04:21:53.412Z,41.60
2019-03-03T04:24:36.711Z,30.97
2019-03-03T04:27:08.117Z,38.20
2019-03-03T04:29:48.521Z,34.63
2019-03-03T04:32:28.778Z,36.60
2019-03-03T04:35:09.247Z,34.43
2019-03-03T04:37:52.936Z,37.60
2019-03-03T04:40:29.998Z,30.10
2019-03-03T04:43:01.287Z,38.77
2019-03-03T04:45:32.727Z,35.83
2019-03-03T04:48:22.197Z,35.47
2019-03-03T04:50:53.966Z,33.40
2019-03-03T04:53:41.337Z,31.40
2019-03-03T04:56:30.667Z,41.70
2019-03-03T04:59:07.821Z,30.90
2019-03-03T05:01:55.774Z,37.50
2019-03-03T05:04:27.133Z,30.00
2019-03-03T05:07:01.490Z,32.77
2019-03-03T05:09:45.122Z,25.40
2019-03-03T05:12:17.666Z,31.83
2019-03-03T05:14:47.297Z,30.60
2019-03-03T05:17:24.215Z,31.10
2019-03-03T05:19:55.636Z,26.30
2019-03-03T05:22:25.251Z,25.03
2019-03-03T05:24:54.985Z,28.70
2019-03-03T05:27:24.670Z,22.80
2019-03-03T05:29:54.345Z,26.03
2019-03-03T05:32:24.290Z,25.03
2019-03-03T05:34:54.031Z,25.80
2019-03-03T05:37:23.665Z,21.27
2019-03-03T05:39:53.340Z,21.10
2019-03-03T05:42:23.022Z,22.03
2019-03-03T05:44:52.721Z,24.47
2019-03-03T05:47:22.437Z,22.90
2019-03-03T05:49:52.126Z,24.70
2019-03-03T05:52:21.803Z,24.93
2019-03-03T05:54:51.429Z,23.83
2019-03-03T05:57:21.181Z,24.17
2019-03-03T05:59:50.910Z,21.20
2019-03-03T06:02:20.613Z,22.50
2019-03-03T06:04:50.223Z,20.20
2019-03-03T06:07:19.963Z,21.60
2019-03-03T06:09:49.590Z,25.63
2019-03-03T06:12:19.334Z,17.47
2019-03-03T06:14:49.067Z,18.23
2019-03-03T06:17:38.141Z,18.13
2019-03-03T06:20:10.727Z,18.30
2019-03-03T06:22:40.487Z,17.37
2019-03-03T06:25:11.584Z,18.13
2019-03-03T06:27:41.359Z,19.40
2019-03-03T06:30:13.874Z,14.70
2019-03-03T06:32:43.631Z,17.40
2019-03-03T06:35:13.618Z,15.63
2019-03-03T06:37:43.330Z,16.27
2019-03-03T06:40:13.139Z,14.27
2019-03-03T06:42:42.800Z,15.17
2019-03-03T06:45:13.883Z,13.10
2019-03-03T06:47:43.623Z,13.20
2019-03-03T06:50:13.772Z,11.13
2019-03-03T06:52:43.878Z,12.43
2019-03-03T06:55:13.564Z,12.97
2019-03-03T06:57:43.204Z,11.73
2019-03-03T07:00:15.577Z,12.50
2019-03-03T07:02:45.403Z,16.23
2019-03-03T07:05:15.191Z,12.53
2019-03-03T07:07:44.802Z,10.67
2019-03-03T07:10:14.898Z,11.23
2019-03-03T07:12:44.530Z,10.20
2019-03-03T07:15:16.317Z,9.93
2019-03-03T07:17:46.067Z,8.23
2019-03-03T07:20:15.832Z,10.30
2019-03-03T07:22:45.594Z,10.40
2019-03-03T07:25:15.847Z,9.77
2019-03-03T07:27:45.444Z,11.63
2019-03-03T07:30:18.200Z,7.90
2019-03-03T07:32:52.451Z,9.47
2019-03-03T07:35:22.089Z,8.50
2019-03-03T07:37:52.073Z,9.87
2019-03-03T07:40:22.095Z,12.13
2019-03-03T07:42:52.202Z,8.93
2019-03-03T07:45:21.883Z,9.53
2019-03-03T07:47:51.681Z,9.27
2019-03-03T07:50:21.390Z,7.10
2019-03-03T07:52:51.074Z,7.20
2019-03-03T07:55:20.778Z,8.80
2019-03-03T07:57:50.479Z,9.67
2019-03-03T08:00:20.275Z,7.70
2019-03-03T08:02:49.993Z,9.67
2019-03-03T08:05:19.775Z,11.83
2019-03-03T08:07:49.736Z,10.77
2019-03-03T08:10:19.445Z,9.20
2019-03-03T08:12:49.139Z,8.13
2019-03-03T08:15:18.971Z,8.83
2019-03-03T08:17:48.783Z,8.90
2019-03-03T08:20:18.868Z,8.50
2019-03-03T08:22:48.645Z,7.83
2019-03-03T08:25:18.406Z,7.83
2019-03-03T08:27:48.044Z,7.40
2019-03-03T08:30:18.978Z,9.00
2019-03-03T08:32:49.064Z,11.60
2019-03-03T08:35:29.943Z,8.13
2019-03-03T08:37:59.568Z,9.47
2019-03-03T08:40:29.409Z,8.37
2019-03-03T08:43:00.715Z,11.47
2019-03-03T08:45:50.246Z,8.80
2019-03-03T08:48:21.587Z,6.30
2019-03-03T08:50:58.460Z,7.23
2019-03-03T08:53:32.177Z,7.40
2019-03-03T08:56:12.430Z,9.57
2019-03-03T08:58:43.809Z,6.53
2019-03-03T09:01:30.521Z,7.37
2019-03-03T09:04:17.250Z,8.07
2019-03-03T09:06:48.569Z,10.30
2019-03-03T09:09:55.493Z,5.90
2019-03-03T09:12:29.913Z,6.50
2019-03-03T09:15:01.326Z,8.77
2019-03-03T09:17:44.807Z,7.43
2019-03-03T09:20:22.243Z,7.97
2019-03-03T09:22:56.675Z,8.73
2019-03-03T09:25:28.006Z,8.63
2019-03-03T09:28:02.415Z,8.83
2019-03-03T09:30:33.832Z,5.50
2019-03-03T09:33:17.445Z,7.60
2019-03-03T09:35:55.232Z,7.97
2019-03-03T09:38:26.631Z,7.70
2019-03-03T09:41:01.191Z,9.40
2019-03-03T09:43:32.496Z,8.23
2019-03-03T09:46:03.919Z,8.77
2019-03-03T09:48:52.117Z,10.20
2019-03-03T09:51:40.046Z,8.47
2019-03-03T09:54:27.883Z,8.30
2019-03-03T09:57:17.523Z,6.67
2019-03-03T09:59:48.903Z,6.90
2019-03-03T10:02:36.861Z,10.27
2019-03-03T10:05:15.499Z,7.70
2019-03-03T10:07:49.687Z,7.47
2019-03-03T10:10:21.116Z,9.53
2019-03-03T10:13:07.423Z,7.60
2019-03-03T10:15:38.779Z,8.33
2019-03-03T10:18:10.211Z,8.13
2019-03-03T10:20:47.463Z,9.90
2019-03-03T10:23:24.619Z,6.77
2019-03-03T10:26:12.567Z,8.93
2019-03-03T10:28:52.931Z,6.53
2019-03-03T10:31:40.770Z,7.10
2019-03-03T10:34:20.765Z,8.90
2019-03-03T10:36:55.129Z,5.03
2019-03-03T10:39:28.635Z,10.23
2019-03-03T10:41:59.934Z,11.93
2019-03-03T10:44:33.865Z,7.73
2019-03-03T10:47:08.399Z,9.77
2019-03-03T10:49:49.018Z,10.50
2019-03-03T10:52:26.342Z,9.40
2019-03-03T10:55:00.804Z,8.50
2019-03-03T10:57:41.053Z,9.33
2019-03-03T11:00:33.738Z,5.10
2019-03-03T11:03:21.832Z,8.50
2019-03-03T11:06:05.537Z,11.67
2019-03-03T11:08:49.098Z,10.80
2019-03-03T11:11:23.409Z,8.17
2019-03-03T11:14:13.126Z,10.90
2019-03-03T11:17:09.670Z,7.33
2019-03-03T11:19:54.171Z,9.30
2019-03-03T11:22:31.647Z,12.27
2019-03-03T11:25:03.035Z,8.57
2019-03-03T11:27:43.439Z,6.73
2019-03-03T11:30:18.230Z,7.90
2019-03-03T11:32:49.692Z,8.83
2019-03-03T11:35:27.395Z,5.33
2019-03-03T11:38:14.050Z,8.67
2019-03-03T11:40:48.215Z,8.40
2019-03-03T11:43:19.645Z,5.67
2019-03-03T11:45:57.123Z,6.57
2019-03-03T11:48:34.229Z,8.53
2019-03-03T11:51:14.329Z,9.10
2019-03-03T11:53:45.624Z,6.53
2019-03-03T11:56:23.110Z,6.93
2019-03-03T11:59:00.419Z,6.60
2019-03-03T12:01:37.604Z,7.10
2019-03-03T12:04:27.522Z,9.87
2019-03-03T12:07:16.191Z,8.97
2019-03-03T12:10:04.187Z,4.70
2019-03-03T12:12:44.865Z,9.20
2019-03-03T12:15:36.391Z,7.30
2019-03-03T12:18:08.595Z,7.83
2019-03-03T12:20:41.209Z,11.07
2019-03-03T12:23:17.219Z,7.10
2019-03-03T12:26:07.076Z,5.60
2019-03-03T12:28:55.809Z,12.13
2019-03-03T12:31:32.913Z,8.30
2019-03-03T12:34:06.086Z,7.23
2019-03-03T12:36:50.372Z,8.40
2019-03-03T12:39:22.098Z,6.80
2019-03-03T12:42:12.451Z,6.23
2019-03-03T12:44:49.872Z,11.43
2019-03-03T12:47:24.743Z,9.10
2019-03-03T12:49:59.952Z,8.83
2019-03-03T12:52:34.964Z,8.50
2019-03-03T12:55:20.235Z,9.07
2019-03-03T12:58:00.652Z,9.47
2019-03-03T13:00:41.455Z,9.63
2019-03-03T13:03:26.594Z,10.07
2019-03-03T13:06:02.019Z,9.90
2019-03-03T13:08:41.453Z,7.83
2019-03-03T13:11:22.863Z,11.37
2019-03-03T13:14:11.282Z,6.60
2019-03-03T13:16:51.878Z,10.60
2019-03-03T13:19:38.560Z,12.33
2019-03-03T13:22:10.349Z,8.17
2019-03-03T13:24:41.956Z,9.93
2019-03-03T13:27:13.240Z,11.80
2019-03-03T13:30:01.239Z,11.30
2019-03-03T13:32:50.867Z,8.30
2019-03-03T13:35:34.523Z,11.60
2019-03-03T13:38:08.919Z,10.67
2019-03-03T13:40:40.304Z,9.97
2019-03-03T13:43:09.989Z,7.90
2019-03-03T13:45:39.803Z,8.43
2019-03-03T13:48:09.557Z,7.57
2019-03-03T13:50:39.499Z,10.07
2019-03-03T13:53:09.240Z,10.37
2019-03-03T13:55:39.052Z,7.70
2019-03-03T13:58:09.169Z,9.20
2019-03-03T14:00:39.496Z,8.80
2019-03-03T14:03:09.296Z,8.80
2019-03-03T14:05:39.016Z,9.20
2019-03-03T14:08:08.782Z,7.43
2019-03-03T14:10:38.602Z,9.30
2019-03-03T14:13:08.516Z,8.27
2019-03-03T14:15:38.300Z,6.80
2019-03-03T14:18:08.149Z,8.40
2019-03-03T14:20:37.905Z,9.30
2019-03-03T14:23:07.705Z,10.43
2019-03-03T14:25:37.450Z,7.53
2019-03-03T14:28:07.253Z,5.43
2019-03-03T14:30:37.003Z,9.53
2019-03-03T14:33:06.861Z,5.93
2019-03-03T14:35:36.592Z,8.27
2019-03-03T14:38:06.882Z,7.40
2019-03-03T14:40:36.646Z,8.70
2019-03-03T14:43:06.706Z,8.70
2019-03-03T14:45:37.121Z,9.27
2019-03-03T14:48:26.155Z,7.83
2019-03-03T14:50:55.946Z,8.77
2019-03-03T14:53:25.723Z,10.20
2019-03-03T14:55:55.467Z,9.87
2019-03-03T14:58:25.250Z,14.33
2019-03-03T15:00:55.068Z,8.50
2019-03-03T15:03:24.802Z,12.30
2019-03-03T15:05:54.654Z,12.70
2019-03-03T15:08:24.448Z,10.73
2019-03-03T15:10:54.247Z,12.07
2019-03-03T15:13:24.294Z,8.90
2019-03-03T15:15:54.216Z,10.80
2019-03-03T15:18:23.971Z,12.00
2019-03-03T15:20:53.778Z,10.63
2019-03-03T15:23:23.801Z,8.27
2019-03-03T15:25:53.563Z,11.63
2019-03-03T15:28:23.640Z,7.60
2019-03-03T15:30:56.534Z,9.30
2019-03-03T15:33:27.560Z,8.53
2019-03-03T15:36:01.425Z,8.73
2019-03-03T15:38:32.847Z,8.33
2019-03-03T15:41:23.160Z,7.50
2019-03-03T15:43:53.369Z,13.23
2019-03-03T15:46:26.504Z,8.87
2019-03-03T15:49:15.796Z,8.77
2019-03-03T15:51:46.721Z,6.63
2019-03-03T15:54:16.557Z,12.13
2019-03-03T15:56:46.301Z,9.73
2019-03-03T15:59:16.139Z,6.80
2019-03-03T16:01:46.001Z,10.10
2019-03-03T16:04:16.181Z,11.67
2019-03-03T16:06:46.079Z,9.80
2019-03-03T16:09:16.746Z,11.57
2019-03-03T16:11:46.410Z,7.80
2019-03-03T16:14:16.551Z,10.90
2019-03-03T16:16:46.557Z,8.17
2019-03-03T16:19:16.450Z,10.30
2019-03-03T16:21:46.332Z,14.27
2019-03-03T16:24:16.080Z,10.57
2019-03-03T16:26:45.855Z,8.00
2019-03-03T16:29:15.639Z,7.33
2019-03-03T16:31:45.455Z,11.73
2019-03-03T16:34:15.282Z,8.43
2019-03-03T16:36:45.189Z,7.83
2019-03-03T16:39:15.436Z,10.13
2019-03-03T16:41:45.194Z,9.10
2019-03-03T16:44:14.891Z,8.90
2019-03-03T16:46:44.795Z,11.57
2019-03-03T16:49:14.511Z,15.20
2019-03-03T16:51:44.410Z,6.90
2019-03-03T16:54:14.108Z,10.00
2019-03-03T16:56:43.873Z,7.13
2019-03-03T16:59:13.738Z,11.70
2019-03-03T17:01:43.558Z,9.57
2019-03-03T17:04:13.307Z,11.97
2019-03-03T17:06:43.237Z,11.13
2019-03-03T17:09:12.989Z,10.63
2019-03-03T17:11:42.895Z,11.00
2019-03-03T17:14:12.647Z,11.30
2019-03-03T17:16:42.406Z,11.27
2019-03-03T17:19:12.198Z,11.73
2019-03-03T17:21:42.082Z,9.23
2019-03-03T17:24:11.907Z,9.40
2019-03-03T17:26:41.795Z,10.23
2019-03-03T17:29:11.592Z,8.93
2019-03-03T17:31:41.425Z,9.07
2019-03-03T17:34:13.237Z,11.37
2019-03-03T17:36:43.093Z,10.00
2019-03-03T17:39:13.005Z,8.47
2019-03-03T17:41:42.931Z,9.87
2019-03-03T17:44:12.914Z,10.73
2019-03-03T17:46:43.171Z,11.27
2019-03-03T17:49:12.831Z,7.40
2019-03-03T17:51:42.589Z,10.53
2019-03-03T17:54:12.410Z,9.80
2019-03-03T17:56:42.258Z,8.80
2019-03-03T17:59:12.033Z,11.20
2019-03-03T18:01:41.816Z,9.77
2019-03-03T18:04:11.650Z,9.43
2019-03-03T18:06:41.487Z,11.43
2019-03-03T18:09:11.446Z,10.50
2019-03-03T18:11:41.311Z,11.13
2019-03-03T18:14:10.907Z,9.63
2019-03-03T18:16:40.844Z,11.80
2019-03-03T18:19:10.568Z,11.97
2019-03-03T18:21:40.327Z,13.17
2019-03-03T18:24:29.378Z,8.93
2019-03-03T18:26:59.194Z,10.40
2019-03-03T18:29:48.224Z,9.87
2019-03-03T18:32:17.876Z,10.13
2019-03-03T18:34:47.504Z,9.20
2019-03-03T18:37:17.207Z,9.23
2019-03-03T18:39:46.902Z,8.33
2019-03-03T18:42:19.428Z,9.90
2019-03-03T18:44:50.237Z,14.17
2019-03-03T18:47:20.333Z,10.47
2019-03-03T18:49:50.351Z,8.57
2019-03-03T18:52:20.273Z,9.33
2019-03-03T18:54:49.976Z,9.63
2019-03-03T18:57:21.213Z,8.87
2019-03-03T18:59:51.065Z,9.20
2019-03-03T19:02:20.768Z,9.40
2019-03-03T19:04:50.473Z,8.20
2019-03-03T19:07:20.266Z,8.20
2019-03-03T19:09:50.285Z,13.67
2019-03-03T19:12:20.294Z,7.27
2019-03-03T19:14:50.142Z,18.63
2019-03-03T19:17:22.096Z,11.90
2019-03-03T19:19:51.836Z,6.80
2019-03-03T19:22:21.481Z,12.70
2019-03-03T19:24:51.167Z,8.70
2019-03-03T19:27:20.983Z,9.30
2019-03-03T19:29:50.769Z,7.70
2019-03-03T19:32:20.551Z,5.33
2019-03-03T19:34:50.594Z,7.90
2019-03-03T19:37:20.400Z,8.07
2019-03-03T19:39:50.030Z,6.43
2019-03-03T19:42:19.862Z,6.70
2019-03-03T19:44:49.537Z,6.40
2019-03-03T19:47:19.615Z,7.53
2019-03-03T19:49:50.462Z,9.40
2019-03-03T19:52:20.548Z,11.30
2019-03-03T19:54:50.789Z,7.30
2019-03-03T19:57:20.568Z,8.40
2019-03-03T19:59:50.480Z,5.80
2019-03-03T20:02:20.642Z,7.20
2019-03-03T20:04:50.441Z,7.57
2019-03-03T20:07:20.546Z,6.40
2019-03-03T20:09:50.219Z,10.67
2019-03-03T20:12:19.889Z,10.23
2019-03-03T20:14:49.730Z,7.43
2019-03-03T20:17:19.354Z,7.93
2019-03-03T20:19:49.525Z,7.03
2019-03-03T20:22:19.402Z,8.17
2019-03-03T20:24:50.786Z,8.23
2019-03-03T20:27:20.932Z,6.10
2019-03-03T20:29:50.741Z,8.83
2019-03-03T20:32:20.339Z,6.70
2019-03-03T20:34:50.082Z,5.67
2019-03-03T20:37:20.082Z,11.33
2019-03-03T20:39:49.852Z,8.27
2019-03-03T20:42:19.652Z,8.07
2019-03-03T20:45:10.243Z,8.30
2019-03-03T20:47:40.134Z,8.60
2019-03-03T20:50:15.438Z,8.17
2019-03-03T20:52:45.126Z,8.20
2019-03-03T20:55:19.623Z,6.27
2019-03-03T20:57:49.398Z,7.97
2019-03-03T21:00:32.987Z,6.00
2019-03-03T21:03:02.694Z,6.90
2019-03-03T21:05:32.391Z,6.67
2019-03-03T21:08:03.452Z,6.27
2019-03-03T21:10:36.788Z,5.57
2019-03-03T21:13:06.894Z,7.93
2019-03-03T21:15:36.587Z,6.10
2019-03-03T21:18:09.013Z,7.90
2019-03-03T21:20:38.792Z,6.00
2019-03-03T21:23:08.831Z,8.83
2019-03-03T21:25:38.616Z,8.67
2019-03-03T21:28:08.325Z,5.80
2019-03-03T21:30:38.042Z,6.73
2019-03-03T21:33:07.877Z,9.93
2019-03-03T21:35:37.537Z,8.93
2019-03-03T21:38:07.298Z,9.00
2019-03-03T21:40:37.834Z,11.00
2019-03-03T21:43:07.828Z,5.43
2019-03-03T21:45:37.519Z,6.20
2019-03-03T21:48:07.262Z,6.47
2019-03-03T21:50:37.072Z,5.83
2019-03-03T21:53:07.436Z,7.80
2019-03-03T21:55:37.205Z,7.80
2019-03-03T21:58:07.943Z,6.30
2019-03-03T22:00:42.879Z,5.97
2019-03-03T22:03:12.645Z,5.47
2019-03-03T22:05:43.161Z,8.20
2019-03-03T22:08:13.045Z,6.33
2019-03-03T22:10:42.824Z,6.77
2019-03-03T22:13:13.066Z,6.40
2019-03-03T22:15:42.823Z,10.83
2019-03-03T22:18:12.539Z,6.33
2019-03-03T22:20:42.390Z,7.20
2019-03-03T22:23:12.203Z,7.27
2019-03-03T22:25:41.953Z,5.47
2019-03-03T22:28:11.718Z,7.10
2019-03-03T22:30:41.675Z,5.30
2019-03-03T22:33:11.431Z,6.73
2019-03-03T22:35:41.766Z,5.03
2019-03-03T22:38:13.019Z,9.20
2019-03-03T22:40:42.743Z,6.43
2019-03-03T22:43:12.542Z,7.53
2019-03-03T22:45:42.266Z,7.70
2019-03-03T22:48:11.941Z,6.83
2019-03-03T22:50:41.559Z,6.60
2019-03-03T22:53:11.172Z,8.03
2019-03-03T22:55:41.108Z,7.33
2019-03-03T22:58:11.382Z,10.57
2019-03-03T23:00:51.025Z,6.27
2019-03-03T23:03:39.522Z,6.30
2019-03-03T23:06:30.755Z,8.47
2019-03-03T23:09:13.035Z,4.80
2019-03-03T23:11:59.848Z,5.73
2019-03-03T23:14:38.499Z,7.97
2019-03-03T23:17:29.884Z,8.50
2019-03-03T23:20:15.171Z,5.80
2019-03-03T23:22:48.339Z,6.50
2019-03-03T23:25:47.123Z,7.77
2019-03-03T23:28:17.288Z,8.73
2019-03-03T23:30:47.425Z,5.97
2019-03-03T23:33:18.514Z,7.93
2019-03-03T23:35:48.862Z,5.17
2019-03-03T23:38:19.086Z,8.57
2019-03-03T23:40:49.230Z,6.10
2019-03-03T23:43:19.384Z,9.60
2019-03-03T23:45:49.445Z,6.70
2019-03-03T23:48:19.362Z,7.90
2019-03-03T23:50:49.537Z,5.30
2019-03-03T23:53:19.718Z,10.77
2019-03-03T23:55:50.102Z,4.50
2019-03-03T23:58:20.213Z,5.80
